createdAt,value
2023-02-06T00:01:03.469Z,67.84
2023-02-06T00:03:52.668Z,67.95
2023-02-06T00:06:43.914Z,68.32
2023-02-06T00:09:33.327Z,67.96
2023-02-06T00:12:22.593Z,68.00
2023-02-06T00:15:11.883Z,68.97
2023-02-06T00:18:01.149Z,68.66
2023-02-06T00:20:50.408Z,68.18
2023-02-06T00:23:41.318Z,68.29
2023-02-06T00:26:31.666Z,68.42
2023-02-06T00:29:20.857Z,68.64
2023-02-06T00:32:10.032Z,68.86
2023-02-06T00:34:59.202Z,68.76
2023-02-06T00:37:48.325Z,68.58
2023-02-06T00:40:39.017Z,68.70
2023-02-06T00:43:28.395Z,69.48
2023-02-06T00:46:19.021Z,69.02
2023-02-06T00:49:08.219Z,69.44
2023-02-06T00:51:57.450Z,69.53
2023-02-06T00:54:46.734Z,69.89
2023-02-06T00:57:37.390Z,69.36
2023-02-06T01:00:26.781Z,70.08
2023-02-06T01:03:16.071Z,69.05
2023-02-06T01:06:05.722Z,68.90
2023-02-06T01:08:55.100Z,69.18
2023-02-06T01:11:44.414Z,68.75
2023-02-06T01:14:35.011Z,69.44
2023-02-06T01:17:24.195Z,69.28
2023-02-06T01:20:15.839Z,69.61
2023-02-06T01:23:05.284Z,68.93
2023-02-06T01:25:54.569Z,69.42
2023-02-06T01:28:47.959Z,68.91
2023-02-06T01:31:38.686Z,68.96
2023-02-06T01:34:28.028Z,68.92
2023-02-06T01:37:17.501Z,69.82
2023-02-06T01:40:09.380Z,69.44
2023-02-06T01:42:58.619Z,69.76
2023-02-06T01:45:48.278Z,69.91
2023-02-06T01:48:42.779Z,69.50
2023-02-06T01:51:32.788Z,69.60
2023-02-06T01:54:22.424Z,69.56
2023-02-06T01:57:13.798Z,69.91
2023-02-06T02:00:08.816Z,69.66
2023-02-06T02:03:02.583Z,70.13
2023-02-06T02:05:58.881Z,69.96
2023-02-06T02:08:54.661Z,69.49
2023-02-06T02:11:43.939Z,69.02
2023-02-06T02:14:33.222Z,69.81
2023-02-06T02:17:37.913Z,69.98
2023-02-06T02:21:16.079Z,69.29
2023-02-06T02:24:12.213Z,69.29
2023-02-06T02:27:45.787Z,69.84
2023-02-06T02:31:09.151Z,70.08
2023-02-06T02:34:51.998Z,70.32
2023-02-06T02:37:55.653Z,69.76
2023-02-06T02:40:53.991Z,69.75
2023-02-06T02:43:49.064Z,69.60
2023-02-06T02:46:41.837Z,69.76
2023-02-06T02:49:37.876Z,69.87
2023-02-06T02:52:27.141Z,69.54
2023-02-06T02:55:19.428Z,70.31
2023-02-06T02:58:13.448Z,70.21
2023-02-06T03:01:09.322Z,70.50
2023-02-06T03:04:02.711Z,70.95
2023-02-06T03:07:07.758Z,70.74
2023-02-06T03:10:12.075Z,70.85
2023-02-06T03:13:09.294Z,71.38
2023-02-06T03:16:07.485Z,70.96
2023-02-06T03:19:03.602Z,70.62
2023-02-06T03:21:53.173Z,70.70
2023-02-06T03:24:43.856Z,70.42
2023-02-06T03:27:33.898Z,69.98
2023-02-06T03:30:26.050Z,70.43
2023-02-06T03:33:18.467Z,70.10
2023-02-06T03:36:11.191Z,69.95
2023-02-06T03:39:00.624Z,70.36
2023-02-06T03:41:52.732Z,69.83
2023-02-06T03:44:48.280Z,69.59
2023-02-06T03:47:39.860Z,70.25
2023-02-06T03:50:29.640Z,70.54
2023-02-06T03:53:22.350Z,69.60
2023-02-06T03:56:20.520Z,70.60
2023-02-06T03:59:11.409Z,70.95
2023-02-06T04:02:03.790Z,70.54
2023-02-06T04:04:53.780Z,71.24
2023-02-06T04:07:43.213Z,71.20
2023-02-06T04:10:32.413Z,70.76
2023-02-06T04:13:21.670Z,70.94
2023-02-06T04:16:12.219Z,71.06
2023-02-06T04:19:01.463Z,71.07
2023-02-06T04:21:50.777Z,71.35
2023-02-06T04:24:41.495Z,71.46
2023-02-06T04:27:30.750Z,72.14
2023-02-06T04:30:20.334Z,71.36
2023-02-06T04:33:10.990Z,71.49
2023-02-06T04:36:00.141Z,71.91
2023-02-06T04:38:49.391Z,71.53
2023-02-06T04:41:38.633Z,71.70
2023-02-06T04:44:27.856Z,72.49
2023-02-06T04:47:17.102Z,72.19
2023-02-06T04:50:10.541Z,71.94
2023-02-06T04:53:00.206Z,72.04
2023-02-06T04:55:49.503Z,72.42
2023-02-06T04:58:39.506Z,73.26
2023-02-06T05:01:28.763Z,72.67
2023-02-06T05:04:18.000Z,73.82
2023-02-06T05:07:08.603Z,73.73
2023-02-06T05:09:57.778Z,73.22
2023-02-06T05:12:50.945Z,73.30
2023-02-06T05:15:40.561Z,72.73
2023-02-06T05:18:29.818Z,72.11
2023-02-06T05:21:19.122Z,73.14
2023-02-06T05:24:09.773Z,72.59
2023-02-06T05:26:59.087Z,73.50
2023-02-06T05:29:48.265Z,73.43
2023-02-06T05:32:37.512Z,73.32
2023-02-06T05:35:26.679Z,73.13
2023-02-06T05:38:16.009Z,73.70
2023-02-06T05:41:07.066Z,73.98
2023-02-06T05:43:56.201Z,73.13
2023-02-06T05:46:45.445Z,73.12
2023-02-06T05:49:34.654Z,74.04
2023-02-06T05:52:23.924Z,73.89
2023-02-06T05:55:17.027Z,73.56
2023-02-06T05:58:07.401Z,73.33
2023-02-06T06:00:56.969Z,74.19
2023-02-06T06:03:46.266Z,74.31
2023-02-06T06:06:35.818Z,73.95
2023-02-06T06:09:25.680Z,74.58
2023-02-06T06:12:14.868Z,73.82
2023-02-06T06:15:06.159Z,74.67
2023-02-06T06:17:55.386Z,74.13
2023-02-06T06:20:44.619Z,73.88
2023-02-06T06:23:33.823Z,74.06
2023-02-06T06:26:23.026Z,73.98
2023-02-06T06:29:12.235Z,73.69
2023-02-06T06:32:02.806Z,74.02
2023-02-06T06:34:51.988Z,74.96
2023-02-06T06:37:41.181Z,76.43
2023-02-06T06:40:31.569Z,77.31
2023-02-06T06:43:20.772Z,78.63
2023-02-06T06:46:10.298Z,78.70
2023-02-06T06:49:01.490Z,79.18
2023-02-06T06:51:50.824Z,78.47
2023-02-06T06:54:40.199Z,78.86
2023-02-06T06:57:32.890Z,78.35
2023-02-06T07:00:22.681Z,78.42
2023-02-06T07:03:12.889Z,77.66
2023-02-06T07:06:03.758Z,77.75
2023-02-06T07:08:53.055Z,78.15
2023-02-06T07:11:43.036Z,77.79
2023-02-06T07:14:32.329Z,78.74
2023-02-06T07:17:21.502Z,78.04
2023-02-06T07:20:12.313Z,78.52
2023-02-06T07:23:02.952Z,79.29
2023-02-06T07:25:52.245Z,77.88
2023-02-06T07:28:42.337Z,78.20
2023-02-06T07:31:31.617Z,77.72
2023-02-06T07:34:20.862Z,77.81
2023-02-06T07:37:10.078Z,77.99
2023-02-06T07:40:00.782Z,77.94
2023-02-06T07:42:49.981Z,77.26
2023-02-06T07:45:46.611Z,77.92
2023-02-06T07:48:35.899Z,77.47
2023-02-06T07:51:25.179Z,77.71
2023-02-06T07:54:14.784Z,77.29
2023-02-06T07:57:05.513Z,76.49
2023-02-06T07:59:54.811Z,77.81
2023-02-06T08:02:44.400Z,77.46
2023-02-06T08:05:34.201Z,76.67
2023-02-06T08:08:23.448Z,77.23
2023-02-06T08:11:15.708Z,77.41
2023-02-06T08:14:06.272Z,76.82
2023-02-06T08:16:55.649Z,77.00
2023-02-06T08:19:44.939Z,77.68
2023-02-06T08:22:34.081Z,78.09
2023-02-06T08:25:23.504Z,78.10
2023-02-06T08:28:15.116Z,77.69
2023-02-06T08:31:12.009Z,77.18
2023-02-06T08:34:01.443Z,76.65
2023-02-06T08:36:50.749Z,76.95
2023-02-06T08:39:39.963Z,76.97
2023-02-06T08:42:29.098Z,76.12
2023-02-06T08:45:18.519Z,77.49
2023-02-06T08:48:09.309Z,76.74
2023-02-06T08:51:05.494Z,76.72
2023-02-06T08:53:57.652Z,76.99
2023-02-06T08:56:46.972Z,76.88
2023-02-06T08:59:36.281Z,77.23
2023-02-06T09:02:25.481Z,77.13
2023-02-06T09:05:16.581Z,77.10
2023-02-06T09:08:06.242Z,76.61
2023-02-06T09:10:55.423Z,77.02
2023-02-06T09:13:49.139Z,77.17
2023-02-06T09:16:38.850Z,77.27
2023-02-06T09:19:28.513Z,77.16
2023-02-06T09:22:19.216Z,77.36
2023-02-06T09:25:09.474Z,76.99
2023-02-06T09:27:58.825Z,76.74
2023-02-06T09:30:48.732Z,76.85
2023-02-06T09:33:40.174Z,76.33
2023-02-06T09:36:30.406Z,76.73
2023-02-06T09:39:21.263Z,77.01
2023-02-06T09:42:20.724Z,75.97
2023-02-06T09:45:15.045Z,76.50
2023-02-06T09:48:25.871Z,76.00
2023-02-06T09:51:20.631Z,75.76
2023-02-06T09:54:22.169Z,75.53
2023-02-06T09:57:21.494Z,75.32
2023-02-06T10:00:27.792Z,75.29
2023-02-06T10:03:41.090Z,75.05
2023-02-06T10:06:38.001Z,74.78
2023-02-06T10:09:38.412Z,74.37
2023-02-06T10:12:40.182Z,75.01
2023-02-06T10:15:36.644Z,74.87
2023-02-06T10:18:33.724Z,74.48
2023-02-06T10:21:32.821Z,74.31
2023-02-06T10:24:33.630Z,74.18
2023-02-06T10:27:22.904Z,74.06
2023-02-06T10:30:20.919Z,73.64
2023-02-06T10:33:25.582Z,74.18
2023-02-06T10:36:40.694Z,73.93
2023-02-06T10:40:03.835Z,72.94
2023-02-06T10:43:02.208Z,72.93
2023-02-06T10:46:02.381Z,72.47
2023-02-06T10:49:02.269Z,72.26
2023-02-06T10:51:56.946Z,72.58
2023-02-06T10:54:53.407Z,72.21
2023-02-06T10:57:44.300Z,71.45
2023-02-06T11:00:33.968Z,71.08
2023-02-06T11:03:31.926Z,70.40
2023-02-06T11:06:23.463Z,69.11
2023-02-06T11:09:12.874Z,68.61
2023-02-06T11:12:03.195Z,67.98
2023-02-06T11:14:54.871Z,68.02
2023-02-06T11:17:46.170Z,66.71
2023-02-06T11:20:39.839Z,66.58
2023-02-06T11:23:34.727Z,66.22
2023-02-06T11:26:24.184Z,65.01
2023-02-06T11:29:19.540Z,65.15
2023-02-06T11:32:25.821Z,65.63
2023-02-06T11:35:29.492Z,64.16
2023-02-06T11:38:23.183Z,63.35
2023-02-06T11:41:20.009Z,64.33
2023-02-06T11:44:15.716Z,63.97
2023-02-06T11:47:32.331Z,62.50
2023-02-06T11:50:28.689Z,62.58
2023-02-06T11:53:20.279Z,63.01
2023-02-06T11:56:20.814Z,62.48
2023-02-06T11:59:23.190Z,62.60
2023-02-06T12:02:30.472Z,62.31
2023-02-06T12:05:22.105Z,62.63
2023-02-06T12:08:17.605Z,62.32
2023-02-06T12:11:14.854Z,61.53
2023-02-06T12:14:10.967Z,60.80
2023-02-06T12:17:03.458Z,59.97
2023-02-06T12:20:03.045Z,60.41
2023-02-06T12:22:56.315Z,60.12
2023-02-06T12:25:50.548Z,60.38
2023-02-06T12:28:54.107Z,59.97
2023-02-06T12:31:53.061Z,59.76
2023-02-06T12:34:54.943Z,59.61
2023-02-06T12:37:52.366Z,59.45
2023-02-06T12:40:51.040Z,59.38
2023-02-06T12:43:44.517Z,57.83
2023-02-06T12:46:34.149Z,58.29
2023-02-06T12:49:29.578Z,57.28
2023-02-06T12:52:26.066Z,57.48
2023-02-06T12:55:23.926Z,56.88
2023-02-06T12:58:29.303Z,57.47
2023-02-06T13:01:34.672Z,57.63
2023-02-06T13:04:27.109Z,58.14
2023-02-06T13:07:20.632Z,58.58
2023-02-06T13:10:18.072Z,58.33
2023-02-06T13:13:07.925Z,58.00
2023-02-06T13:16:00.586Z,57.76
2023-02-06T13:18:55.316Z,56.88
2023-02-06T13:21:53.279Z,56.77
2023-02-06T13:24:44.631Z,54.72
2023-02-06T13:27:40.481Z,52.30
2023-02-06T13:30:50.686Z,50.76
2023-02-06T13:33:43.061Z,48.91
2023-02-06T13:36:51.683Z,48.63
2023-02-06T13:39:40.897Z,48.19
2023-02-06T13:42:41.387Z,47.37
2023-02-06T13:45:36.580Z,46.48
2023-02-06T13:49:07.196Z,45.39
2023-02-06T13:52:05.776Z,45.49
2023-02-06T13:55:22.631Z,44.42
2023-02-06T13:58:35.832Z,44.10
2023-02-06T14:01:31.253Z,44.06
2023-02-06T14:04:25.178Z,45.32
2023-02-06T14:07:51.578Z,44.40
2023-02-06T14:11:07.629Z,44.70
2023-02-06T14:14:24.827Z,46.04
2023-02-06T14:17:39.746Z,47.15
2023-02-06T14:20:45.287Z,47.87
2023-02-06T14:24:08.130Z,48.80
2023-02-06T14:27:15.313Z,49.98
2023-02-06T14:30:18.041Z,49.97
2023-02-06T14:33:25.766Z,50.24
2023-02-06T14:36:34.985Z,49.86
2023-02-06T14:39:48.699Z,49.63
2023-02-06T14:42:40.975Z,49.12
2023-02-06T14:45:41.584Z,49.07
2023-02-06T14:48:40.124Z,49.33
2023-02-06T14:51:34.529Z,48.79
2023-02-06T14:54:33.731Z,48.38
2023-02-06T14:57:28.944Z,47.16
2023-02-06T15:00:21.936Z,47.60
2023-02-06T15:03:18.350Z,47.23
2023-02-06T15:06:11.285Z,47.91
2023-02-06T15:09:01.206Z,48.41
2023-02-06T15:11:53.435Z,49.30
2023-02-06T15:14:53.184Z,49.60
2023-02-06T15:17:42.855Z,50.85
2023-02-06T15:20:37.863Z,51.13
2023-02-06T15:23:42.671Z,51.95
2023-02-06T15:26:40.792Z,52.30
2023-02-06T15:29:30.074Z,52.76
2023-02-06T15:32:30.122Z,52.89
2023-02-06T15:35:24.037Z,52.91
2023-02-06T15:38:16.948Z,53.40
2023-02-06T15:41:09.711Z,53.44
2023-02-06T15:44:03.690Z,53.62
2023-02-06T15:46:54.193Z,53.91
2023-02-06T15:49:47.741Z,52.79
2023-02-06T15:52:43.051Z,50.76
2023-02-06T15:55:36.354Z,50.86
2023-02-06T15:58:26.078Z,48.40
2023-02-06T16:01:20.439Z,47.69
2023-02-06T16:04:14.848Z,47.41
2023-02-06T16:07:13.691Z,46.75
2023-02-06T16:10:15.620Z,45.65
2023-02-06T16:13:12.221Z,45.09
2023-02-06T16:16:20.948Z,45.36
2023-02-06T16:19:41.920Z,45.94
2023-02-06T16:22:35.232Z,47.00
2023-02-06T16:25:30.730Z,47.79
2023-02-06T16:28:23.182Z,48.52
2023-02-06T16:31:15.967Z,48.91
2023-02-06T16:34:22.333Z,49.81
2023-02-06T16:37:15.503Z,50.41
2023-02-06T16:40:07.419Z,50.70
2023-02-06T16:42:56.745Z,51.33
2023-02-06T16:45:46.746Z,51.64
2023-02-06T16:48:35.943Z,51.94
2023-02-06T16:51:28.399Z,52.26
2023-02-06T16:54:23.763Z,52.55
2023-02-06T16:57:27.298Z,53.28
2023-02-06T17:00:23.328Z,53.38
2023-02-06T17:03:16.266Z,53.64
2023-02-06T17:06:07.353Z,54.54
2023-02-06T17:09:03.514Z,54.54
2023-02-06T17:11:53.877Z,54.42
2023-02-06T17:14:44.997Z,55.67
2023-02-06T17:17:34.291Z,55.37
2023-02-06T17:20:31.611Z,55.91
2023-02-06T17:23:21.434Z,56.31
2023-02-06T17:26:14.643Z,56.77
2023-02-06T17:29:03.968Z,57.94
2023-02-06T17:31:54.635Z,57.86
2023-02-06T17:34:43.920Z,57.92
2023-02-06T17:37:33.107Z,58.60
2023-02-06T17:40:26.814Z,58.91
2023-02-06T17:43:16.100Z,59.16
2023-02-06T17:46:05.676Z,59.21
2023-02-06T17:48:56.334Z,59.25
2023-02-06T17:51:46.814Z,59.64
2023-02-06T17:54:36.254Z,60.30
2023-02-06T17:57:26.256Z,60.15
2023-02-06T18:00:19.365Z,60.86
2023-02-06T18:03:09.734Z,60.56
2023-02-06T18:06:02.104Z,60.37
2023-02-06T18:08:52.186Z,60.59
2023-02-06T18:11:41.803Z,60.61
2023-02-06T18:14:31.077Z,60.85
2023-02-06T18:17:20.469Z,60.88
2023-02-06T18:20:12.698Z,60.79
2023-02-06T18:23:03.464Z,61.17
2023-02-06T18:25:53.006Z,60.90
2023-02-06T18:28:42.379Z,61.11
2023-02-06T18:31:35.695Z,61.47
2023-02-06T18:34:24.996Z,61.15
2023-02-06T18:37:14.323Z,61.62
2023-02-06T18:40:05.569Z,61.54
2023-02-06T18:42:55.064Z,61.87
2023-02-06T18:45:44.696Z,61.57
2023-02-06T18:48:33.866Z,62.41
2023-02-06T18:51:23.819Z,61.87
2023-02-06T18:54:13.100Z,61.75
2023-02-06T18:57:04.350Z,62.04
2023-02-06T18:59:53.679Z,62.53
2023-02-06T19:02:43.254Z,63.17
2023-02-06T19:05:37.510Z,63.20
2023-02-06T19:08:26.854Z,63.08
2023-02-06T19:11:16.335Z,62.54
2023-02-06T19:14:08.597Z,62.91
2023-02-06T19:16:58.569Z,62.46
2023-02-06T19:19:47.826Z,62.34
2023-02-06T19:22:38.239Z,62.14
2023-02-06T19:25:27.543Z,62.11
2023-02-06T19:28:16.905Z,62.39
2023-02-06T19:31:09.483Z,62.69
2023-02-06T19:34:02.346Z,62.85
2023-02-06T19:36:51.589Z,63.10
2023-02-06T19:39:43.280Z,63.02
2023-02-06T19:42:32.477Z,63.21
2023-02-06T19:45:21.660Z,64.05
2023-02-06T19:48:13.944Z,63.49
2023-02-06T19:51:08.549Z,64.02
2023-02-06T19:53:59.758Z,64.78
2023-02-06T19:56:50.229Z,64.72
2023-02-06T19:59:39.375Z,64.52
2023-02-06T20:02:28.641Z,64.50
2023-02-06T20:05:25.967Z,64.39
2023-02-06T20:08:15.232Z,64.64
2023-02-06T20:11:07.263Z,64.66
2023-02-06T20:13:58.345Z,64.75
2023-02-06T20:16:49.402Z,64.73
2023-02-06T20:19:38.710Z,64.87
2023-02-06T20:22:30.081Z,64.88
2023-02-06T20:25:20.949Z,64.57
2023-02-06T20:28:10.636Z,64.36
2023-02-06T20:31:00.013Z,64.36
2023-02-06T20:33:50.628Z,64.53
2023-02-06T20:36:41.913Z,64.46
2023-02-06T20:39:32.588Z,64.14
2023-02-06T20:42:24.721Z,64.16
2023-02-06T20:45:14.171Z,64.28
2023-02-06T20:48:03.360Z,64.57
2023-02-06T20:50:58.826Z,64.42
2023-02-06T20:53:48.115Z,64.33
2023-02-06T20:56:39.577Z,64.34
2023-02-06T20:59:29.302Z,64.66
2023-02-06T21:02:18.705Z,64.48
2023-02-06T21:05:08.874Z,64.77
2023-02-06T21:07:58.973Z,64.51
2023-02-06T21:10:50.718Z,64.72
2023-02-06T21:13:42.666Z,64.63
2023-02-06T21:16:33.272Z,64.56
2023-02-06T21:19:22.618Z,64.23
2023-02-06T21:22:11.818Z,63.80
2023-02-06T21:25:01.061Z,64.32
2023-02-06T21:27:50.411Z,64.33
2023-02-06T21:30:41.457Z,64.66
2023-02-06T21:33:30.954Z,64.61
2023-02-06T21:36:21.468Z,64.52
2023-02-06T21:39:12.682Z,64.58
2023-02-06T21:42:01.900Z,64.74
2023-02-06T21:44:51.122Z,64.98
2023-02-06T21:47:41.691Z,65.35
2023-02-06T21:50:31.241Z,64.86
2023-02-06T21:53:20.612Z,64.97
2023-02-06T21:56:13.640Z,65.33
2023-02-06T21:59:02.790Z,65.44
2023-02-06T22:01:52.155Z,65.33
2023-02-06T22:04:42.873Z,65.07
2023-02-06T22:07:32.096Z,64.91
2023-02-06T22:10:21.499Z,64.82
2023-02-06T22:13:10.829Z,65.17
2023-02-06T22:16:00.140Z,64.89
2023-02-06T22:18:49.700Z,64.98
2023-02-06T22:21:40.733Z,64.94
2023-02-06T22:24:30.175Z,65.33
2023-02-06T22:27:20.369Z,65.10
2023-02-06T22:30:11.756Z,65.06
2023-02-06T22:33:01.897Z,65.08
2023-02-06T22:35:51.182Z,65.30
2023-02-06T22:38:44.177Z,65.46
2023-02-06T22:41:33.483Z,65.49
2023-02-06T22:44:23.196Z,65.35
2023-02-06T22:47:12.408Z,65.32
2023-02-06T22:50:01.625Z,65.47
2023-02-06T22:53:08.195Z,65.58
2023-02-06T22:56:16.605Z,65.39
2023-02-06T22:59:10.349Z,66.09
2023-02-06T23:02:00.421Z,66.28
2023-02-06T23:04:49.724Z,66.43
2023-02-06T23:07:38.966Z,66.83
2023-02-06T23:10:28.332Z,66.79
2023-02-06T23:13:18.967Z,67.07
2023-02-06T23:16:09.650Z,66.73
2023-02-06T23:18:59.057Z,66.93
2023-02-06T23:21:51.219Z,67.16
2023-02-06T23:24:40.388Z,66.79
2023-02-06T23:27:30.363Z,66.85
2023-02-06T23:30:21.392Z,66.79
2023-02-06T23:33:10.820Z,66.55
2023-02-06T23:36:05.581Z,66.51
2023-02-06T23:38:55.455Z,66.23
2023-02-06T23:41:44.646Z,66.54
2023-02-06T23:44:33.836Z,66.66
2023-02-06T23:47:24.734Z,66.77
2023-02-06T23:50:14.180Z,66.84
2023-02-06T23:53:03.430Z,66.59
2023-02-06T23:55:52.672Z,66.68
2023-02-06T23:58:42.652Z,66.87
